createdAt,value
2023-03-17T00:00:18.872Z,28.4
2023-03-17T00:05:18.918Z,27.1
2023-03-17T00:10:15.813Z,27.1
2023-03-17T00:15:15.860Z,28.2
2023-03-17T00:20:19.114Z,27.6
2023-03-17T00:25:18.906Z,27.8
2023-03-17T00:30:18.995Z,27.6
2023-03-17T00:35:19.002Z,28.2
2023-03-17T00:40:18.960Z,27.9
2023-03-17T00:45:19.063Z,27.6
2023-03-17T00:50:19.208Z,28.3
2023-03-17T00:55:18.937Z,29.1
2023-03-17T01:00:19.031Z,28.3
2023-03-17T01:05:15.939Z,28.2
2023-03-17T01:10:15.960Z,28.4
2023-03-17T01:15:19.053Z,28.0
2023-03-17T01:20:19.095Z,28.1
2023-03-17T01:25:19.068Z,28.6
2023-03-17T01:30:19.098Z,29.0
2023-03-17T01:35:19.101Z,29.7
2023-03-17T01:40:19.073Z,28.6
2023-03-17T01:45:19.173Z,28.4
2023-03-17T01:50:19.098Z,27.8
2023-03-17T01:55:19.372Z,27.9
2023-03-17T02:00:16.065Z,27.9
2023-03-17T02:05:19.146Z,27.5
2023-03-17T02:10:19.165Z,27.4
2023-03-17T02:15:19.211Z,27.4
2023-03-17T02:20:19.158Z,27.9
2023-03-17T02:25:19.111Z,28.2
2023-03-17T02:30:19.206Z,28.0
2023-03-17T02:35:19.261Z,28.0
2023-03-17T02:40:19.268Z,29.8
2023-03-17T02:45:19.233Z,29.7
2023-03-17T02:50:16.226Z,29.4
2023-03-17T02:55:16.175Z,29.8
2023-03-17T03:00:19.200Z,29.7
2023-03-17T03:05:19.383Z,29.8
2023-03-17T03:10:19.357Z,29.5
2023-03-17T03:15:19.297Z,29.2
2023-03-17T03:20:19.303Z,29.1
2023-03-17T03:25:19.344Z,28.5
2023-03-17T03:30:19.285Z,28.6
2023-03-17T03:35:19.377Z,29.1
2023-03-17T03:40:19.475Z,28.9
2023-03-17T03:45:16.352Z,29.0
2023-03-17T03:50:16.217Z,28.9
2023-03-17T03:55:19.676Z,29.1
2023-03-17T04:00:15.548Z,29.3
2023-03-17T04:05:15.485Z,28.7
2023-03-17T04:10:18.669Z,29.0
2023-03-17T04:15:18.678Z,28.7
2023-03-17T04:20:18.618Z,28.5
2023-03-17T04:25:18.748Z,28.8
2023-03-17T04:30:18.662Z,28.6
2023-03-17T04:35:18.692Z,29.1
2023-03-17T04:40:18.615Z,28.9
2023-03-17T04:45:18.699Z,28.7
2023-03-17T04:50:18.923Z,28.8
2023-03-17T04:55:15.634Z,29.0
2023-03-17T05:00:18.835Z,28.9
2023-03-17T05:05:18.844Z,29.0
2023-03-17T05:10:18.786Z,29.2
2023-03-17T05:15:18.831Z,29.2
2023-03-17T05:20:18.719Z,29.5
2023-03-17T05:25:18.874Z,29.5
2023-03-17T05:30:18.852Z,29.3
2023-03-17T05:35:18.797Z,29.6
2023-03-17T05:40:18.901Z,29.4
2023-03-17T05:45:15.693Z,30.1
2023-03-17T05:50:15.845Z,29.5
2023-03-17T05:55:18.859Z,31.0
2023-03-17T06:00:18.897Z,30.9
2023-03-17T06:05:18.902Z,30.8
2023-03-17T06:10:18.896Z,30.9
2023-03-17T06:15:18.875Z,30.3
2023-03-17T06:20:18.921Z,29.9
2023-03-17T06:25:19.032Z,30.5
2023-03-17T06:30:18.933Z,30.4
2023-03-17T06:35:19.085Z,30.3
2023-03-17T06:40:15.760Z,30.3
2023-03-17T06:45:15.892Z,30.3
2023-03-17T06:50:19.040Z,30.5
2023-03-17T06:55:19.057Z,30.4
2023-03-17T07:00:19.043Z,30.7
2023-03-17T07:05:19.090Z,30.7
2023-03-17T07:10:19.007Z,30.8
2023-03-17T07:15:19.040Z,29.1
2023-03-17T07:20:19.073Z,29.3
2023-03-17T07:25:19.076Z,29.3
2023-03-17T07:30:16.000Z,29.4
2023-03-17T07:35:16.006Z,29.5
2023-03-17T07:40:19.113Z,29.2
2023-03-17T07:45:19.218Z,29.2
2023-03-17T07:50:19.201Z,29.5
2023-03-17T07:55:19.092Z,29.7
2023-03-17T08:00:19.140Z,29.6
2023-03-17T08:05:19.156Z,29.5
2023-03-17T08:10:19.059Z,29.5
2023-03-17T08:15:19.245Z,29.3
2023-03-17T08:20:19.198Z,29.4
2023-03-17T08:25:16.088Z,29.2
2023-03-17T08:30:16.089Z,29.5
2023-03-17T08:35:19.325Z,29.4
2023-03-17T08:40:19.205Z,29.1
2023-03-17T08:45:19.184Z,29.0
2023-03-17T08:50:19.198Z,29.3
2023-03-17T08:55:19.227Z,29.4
2023-03-17T09:00:19.208Z,29.3
2023-03-17T09:05:19.230Z,29.4
2023-03-17T09:10:19.298Z,29.5
2023-03-17T09:15:19.308Z,29.4
2023-03-17T09:20:16.215Z,29.2
2023-03-17T09:25:16.168Z,29.1
2023-03-17T09:30:19.447Z,29.1
2023-03-17T09:35:19.354Z,29.0
2023-03-17T09:40:19.409Z,29.3
2023-03-17T09:45:19.383Z,29.4
2023-03-17T09:50:19.346Z,29.1
2023-03-17T09:55:19.338Z,29.1
2023-03-17T10:00:19.403Z,29.5
2023-03-17T10:05:19.505Z,29.4
2023-03-17T10:10:19.448Z,29.6
2023-03-17T10:15:16.308Z,29.8
2023-03-17T10:20:19.615Z,29.8
2023-03-17T10:25:19.497Z,30.1
2023-03-17T10:30:19.594Z,30.1
2023-03-17T10:35:19.537Z,30.0
2023-03-17T10:40:19.720Z,30.0
2023-03-17T10:45:19.475Z,29.9
2023-03-17T10:50:19.551Z,29.9
2023-03-17T10:55:19.530Z,29.2
2023-03-17T11:00:19.551Z,28.9
2023-03-17T11:05:16.392Z,28.9
2023-03-17T11:10:16.643Z,29.2
2023-03-17T11:15:19.635Z,29.1
2023-03-17T11:20:19.513Z,29.4
2023-03-17T11:25:19.581Z,29.3
2023-03-17T11:30:19.560Z,29.7
2023-03-17T11:35:19.513Z,30.2
2023-03-17T11:40:19.633Z,29.9
2023-03-17T11:45:19.633Z,29.5
2023-03-17T11:50:19.611Z,29.5
2023-03-17T11:55:19.657Z,30.0
2023-03-17T12:00:16.706Z,30.1
2023-03-17T12:05:16.562Z,30.7
2023-03-17T12:10:19.692Z,30.6
2023-03-17T12:15:19.746Z,30.6
2023-03-17T12:20:19.690Z,30.6
2023-03-17T12:25:19.731Z,30.6
2023-03-17T12:30:19.722Z,30.8
2023-03-17T12:35:19.777Z,30.8
2023-03-17T12:40:19.706Z,30.8
2023-03-17T12:45:19.763Z,31.1
2023-03-17T12:50:19.767Z,31.0
2023-03-17T12:55:16.970Z,31.0
2023-03-17T13:00:19.752Z,31.7
2023-03-17T13:05:19.744Z,31.1
2023-03-17T13:10:19.820Z,31.4
2023-03-17T13:15:19.774Z,31.4
2023-03-17T13:20:19.824Z,31.4
2023-03-17T13:25:19.772Z,31.4
2023-03-17T13:30:19.774Z,31.4
2023-03-17T13:35:19.697Z,31.6
2023-03-17T13:40:19.859Z,31.8
2023-03-17T13:45:16.723Z,31.7
2023-03-17T13:50:16.770Z,31.5
2023-03-17T13:55:20.037Z,31.8
2023-03-17T14:00:19.925Z,31.9
2023-03-17T14:05:19.834Z,32.2
2023-03-17T14:10:19.903Z,32.0
2023-03-17T14:15:20.001Z,31.9
2023-03-17T14:20:19.870Z,32.0
2023-03-17T14:25:19.908Z,32.1
2023-03-17T14:30:20.048Z,32.3
2023-03-17T14:35:20.033Z,32.3
2023-03-17T14:40:16.809Z,32.5
2023-03-17T14:45:17.101Z,32.9
2023-03-17T14:50:19.954Z,32.7
2023-03-17T14:55:20.100Z,32.9
2023-03-17T15:00:19.994Z,33.2
2023-03-17T15:05:20.017Z,33.2
2023-03-17T15:10:20.067Z,33.4
2023-03-17T15:15:20.014Z,33.5
2023-03-17T15:20:20.070Z,33.2
2023-03-17T15:25:20.120Z,33.5
2023-03-17T15:30:16.998Z,33.7
2023-03-17T15:35:16.966Z,33.5
2023-03-17T15:40:20.259Z,33.4
2023-03-17T15:45:20.141Z,33.6
2023-03-17T15:50:20.015Z,33.6
2023-03-17T15:55:20.188Z,33.9
2023-03-17T16:00:20.082Z,33.6
2023-03-17T16:05:20.179Z,33.6
2023-03-17T16:10:20.112Z,33.9
2023-03-17T16:15:23.346Z,34.1
2023-03-17T16:20:20.139Z,33.8
2023-03-17T16:25:17.129Z,34.4
2023-03-17T16:30:17.157Z,34.1
2023-03-17T16:35:20.308Z,34.2
2023-03-17T16:40:20.232Z,34.3
2023-03-17T16:45:20.310Z,34.4
2023-03-17T16:50:20.277Z,33.9
2023-03-17T16:55:20.321Z,34.3
2023-03-17T17:00:20.201Z,34.4
2023-03-17T17:05:20.418Z,34.1
2023-03-17T17:10:20.280Z,34.2
2023-03-17T17:15:17.220Z,34.2
2023-03-17T17:20:17.152Z,33.9
2023-03-17T17:25:20.313Z,34.4
2023-03-17T17:30:20.293Z,34.0
2023-03-17T17:35:20.321Z,33.9
2023-03-17T17:40:20.359Z,33.9
2023-03-17T17:45:20.395Z,33.9
2023-03-17T17:50:20.275Z,34.0
2023-03-17T17:55:20.503Z,34.2
2023-03-17T18:00:20.366Z,34.2
2023-03-17T18:05:20.383Z,33.8
2023-03-17T18:10:17.312Z,34.3
2023-03-17T18:15:17.228Z,34.3
2023-03-17T18:20:20.386Z,34.7
2023-03-17T18:25:20.352Z,35.1
2023-03-17T18:30:20.472Z,35.2
2023-03-17T18:35:20.539Z,35.4
2023-03-17T18:40:20.540Z,35.4
2023-03-17T18:45:20.518Z,35.4
2023-03-17T18:50:20.460Z,35.7
2023-03-17T18:55:20.506Z,35.4
2023-03-17T19:00:20.492Z,35.4
2023-03-17T19:05:17.412Z,35.4
2023-03-17T19:10:20.542Z,35.4
2023-03-17T19:15:20.498Z,35.8
2023-03-17T19:20:20.545Z,36.0
2023-03-17T19:25:20.418Z,36.1
2023-03-17T19:30:20.624Z,36.1
2023-03-17T19:35:20.594Z,36.1
2023-03-17T19:40:20.525Z,36.4
2023-03-17T19:45:20.568Z,36.6
2023-03-17T19:50:20.645Z,36.5
2023-03-17T19:55:17.624Z,36.6
2023-03-17T20:00:18.583Z,36.6
2023-03-17T20:05:18.630Z,36.7
2023-03-17T20:10:18.672Z,37.0
2023-03-17T20:15:18.615Z,36.8
2023-03-17T20:20:18.620Z,37.0
2023-03-17T20:25:18.590Z,36.6
2023-03-17T20:30:18.860Z,36.6
2023-03-17T20:35:15.584Z,36.6
2023-03-17T20:40:15.806Z,37.1
2023-03-17T20:45:19.760Z,37.2
2023-03-17T20:50:19.710Z,37.3
2023-03-17T20:55:19.742Z,37.2
2023-03-17T21:00:19.782Z,37.5
2023-03-17T21:05:16.709Z,37.5
2023-03-17T21:10:16.615Z,37.9
2023-03-17T21:15:19.810Z,37.9
2023-03-17T21:20:19.693Z,38.3
2023-03-17T21:25:19.831Z,38.2
2023-03-17T21:30:19.700Z,38.3
2023-03-17T21:35:19.800Z,38.7
2023-03-17T21:40:19.835Z,38.5
2023-03-17T21:45:19.829Z,38.6
2023-03-17T21:50:19.833Z,38.8
2023-03-17T21:55:19.876Z,38.6
2023-03-17T22:00:16.699Z,38.7
2023-03-17T22:05:16.750Z,38.6
2023-03-17T22:10:19.922Z,37.7
2023-03-17T22:15:20.041Z,37.8
2023-03-17T22:20:19.856Z,38.0
2023-03-17T22:25:22.866Z,38.2
2023-03-17T22:30:20.310Z,38.3
2023-03-17T22:35:19.865Z,37.3
2023-03-17T22:40:19.876Z,36.8
2023-03-17T22:45:19.898Z,36.7
2023-03-17T22:50:19.858Z,36.4
2023-03-17T22:55:16.864Z,36.3
2023-03-17T23:00:20.189Z,36.2
2023-03-17T23:05:20.035Z,36.3
2023-03-17T23:10:19.938Z,36.0
2023-03-17T23:15:20.146Z,36.2
2023-03-17T23:20:19.922Z,36.0
2023-03-17T23:25:20.055Z,35.8
2023-03-17T23:30:20.061Z,35.9
2023-03-17T23:35:20.054Z,35.8
2023-03-17T23:40:19.997Z,35.6
2023-03-17T23:45:16.918Z,35.8
2023-03-17T23:50:16.919Z,35.7
2023-03-17T23:55:20.076Z,35.9
